createdAt,value
2018-12-23T00:00:25.571Z,99829.92
2018-12-23T00:00:56.678Z,99825.32
2018-12-23T00:01:27.913Z,99827.53
2018-12-23T00:01:59.668Z,99825.91
2018-12-23T00:02:30.801Z,99824.27
2018-12-23T00:03:01.979Z,99828.19
2018-12-23T00:03:36.891Z,99827.36
2018-12-23T00:04:08.022Z,99835.97
2018-12-23T00:04:39.145Z,99838.98
2018-12-23T00:05:11.629Z,99836.88
2018-12-23T00:05:43.019Z,99840.73
2018-12-23T00:06:14.231Z,99845.34
2018-12-23T00:06:46.264Z,99841.88
2018-12-23T00:07:17.397Z,99846.63
2018-12-23T00:07:48.543Z,99845.79
2018-12-23T00:08:20.235Z,99841.11
2018-12-23T00:08:51.342Z,99845.48
2018-12-23T00:09:22.476Z,99838.73
2018-12-23T00:09:54.261Z,99847.48
2018-12-23T00:10:25.369Z,99836.77
2018-12-23T00:10:57.056Z,99828.66
2018-12-23T00:11:28.188Z,99835.59
2018-12-23T00:11:59.328Z,99831.80
2018-12-23T00:12:31.318Z,99825.81
2018-12-23T00:13:03.215Z,99824.53
2018-12-23T00:13:35.186Z,99824.97
2018-12-23T00:14:06.302Z,99818.93
2018-12-23T00:14:37.419Z,99817.64
2018-12-23T00:15:09.601Z,99822.73
2018-12-23T00:15:40.718Z,99823.58
2018-12-23T00:16:11.830Z,99820.16
2018-12-23T00:16:43.868Z,99824.41
2018-12-23T00:17:15.091Z,99821.84
2018-12-23T00:17:46.539Z,99822.69
2018-12-23T00:18:17.667Z,99823.57
2018-12-23T00:18:48.768Z,99830.02
2018-12-23T00:19:19.936Z,99832.19
2018-12-23T00:19:51.299Z,99824.92
2018-12-23T00:20:23.578Z,99837.79
2018-12-23T00:20:54.824Z,99836.55
2018-12-23T00:21:25.928Z,99841.30
2018-12-23T00:21:57.744Z,99842.55
2018-12-23T00:22:28.919Z,99839.14
2018-12-23T00:23:00.192Z,99838.73
2018-12-23T00:23:31.304Z,99844.65
2018-12-23T00:24:02.459Z,99841.19
2018-12-23T00:24:33.577Z,99841.19
2018-12-23T00:25:04.684Z,99846.73
2018-12-23T00:25:35.801Z,99839.45
2018-12-23T00:26:06.954Z,99842.41
2018-12-23T00:26:38.082Z,99837.27
2018-12-23T00:27:09.248Z,99838.16
2018-12-23T00:27:41.532Z,99831.30
2018-12-23T00:28:13.241Z,99832.14
2018-12-23T00:28:44.345Z,99830.06
2018-12-23T00:29:15.462Z,99829.62
2018-12-23T00:29:46.580Z,99827.10
2018-12-23T00:30:17.689Z,99833.98
2018-12-23T00:30:49.848Z,99834.03
2018-12-23T00:31:21.002Z,99833.59
2018-12-23T00:31:52.156Z,99834.05
2018-12-23T00:32:23.303Z,99833.20
2018-12-23T00:32:54.486Z,99834.93
2018-12-23T00:33:25.670Z,99831.46
2018-12-23T00:33:57.416Z,99832.75
2018-12-23T00:34:28.571Z,99831.45
2018-12-23T00:34:59.712Z,99837.05
2018-12-23T00:35:31.467Z,99832.75
2018-12-23T00:36:02.594Z,99837.06
2018-12-23T00:36:33.838Z,99837.95
2018-12-23T00:37:04.957Z,99830.23
2018-12-23T00:37:36.064Z,99829.39
2018-12-23T00:38:07.280Z,99832.41
2018-12-23T00:38:38.427Z,99834.98
2018-12-23T00:39:09.581Z,99834.98
2018-12-23T00:39:40.689Z,99836.28
2018-12-23T00:40:11.799Z,99831.13
2018-12-23T00:40:42.968Z,99827.27
2018-12-23T00:41:15.339Z,99830.69
2018-12-23T00:41:46.974Z,99831.56
2018-12-23T00:42:18.165Z,99838.00
2018-12-23T00:42:50.242Z,99835.83
2018-12-23T00:43:21.391Z,99831.97
2018-12-23T00:43:52.756Z,99831.53
2018-12-23T00:44:23.861Z,99828.99
2018-12-23T00:44:55.802Z,99827.71
2018-12-23T00:45:27.431Z,99822.12
2018-12-23T00:45:59.572Z,99823.01
2018-12-23T00:46:31.223Z,99820.84
2018-12-23T00:47:02.345Z,99815.30
2018-12-23T00:47:33.444Z,99816.14
2018-12-23T00:48:04.547Z,99813.61
2018-12-23T00:48:35.943Z,99816.59
2018-12-23T00:49:07.591Z,99819.16
2018-12-23T00:49:39.633Z,99818.77
2018-12-23T00:50:10.872Z,99818.80
2018-12-23T00:50:44.229Z,99814.55
2018-12-23T00:51:16.805Z,99816.72
2018-12-23T00:51:47.917Z,99822.32
2018-12-23T00:52:19.565Z,99821.03
2018-12-23T00:52:51.384Z,99818.90
2018-12-23T00:53:22.492Z,99827.51
2018-12-23T00:53:53.605Z,99828.36
2018-12-23T00:54:24.719Z,99828.36
2018-12-23T00:54:55.901Z,99825.37
2018-12-23T00:55:27.026Z,99826.67
2018-12-23T00:55:58.136Z,99827.95
2018-12-23T00:56:31.431Z,99823.25
2018-12-23T00:57:02.601Z,99822.81
2018-12-23T00:57:33.724Z,99828.84
2018-12-23T00:58:04.837Z,99824.54
2018-12-23T00:58:35.947Z,99833.99
2018-12-23T00:59:07.596Z,99828.44
2018-12-23T00:59:38.822Z,99826.31
2018-12-23T01:00:09.947Z,99824.63
2018-12-23T01:00:41.077Z,99800.04
2018-12-23T01:01:12.955Z,99825.06
2018-12-23T01:01:44.736Z,99832.34
2018-12-23T01:02:15.852Z,99832.79
2018-12-23T01:02:46.953Z,99833.19
2018-12-23T01:03:18.060Z,99826.76
2018-12-23T01:03:49.805Z,99831.06
2018-12-23T01:04:24.058Z,99830.22
2018-12-23T01:04:55.163Z,99828.92
2018-12-23T01:05:28.842Z,99837.95
2018-12-23T01:05:59.537Z,99836.25
2018-12-23T01:06:30.644Z,99834.52
2018-12-23T01:07:01.788Z,99828.52
2018-12-23T01:07:32.937Z,99831.51
2018-12-23T01:08:04.046Z,99834.05
2018-12-23T01:08:35.205Z,99834.88
2018-12-23T01:09:06.542Z,99837.45
2018-12-23T01:09:38.912Z,99830.53
2018-12-23T01:10:10.046Z,99832.27
2018-12-23T01:10:41.166Z,99836.13
2018-12-23T01:11:13.209Z,99832.27
2018-12-23T01:11:44.375Z,99836.16
2018-12-23T01:12:16.114Z,99840.47
2018-12-23T01:12:47.997Z,99835.32
2018-12-23T01:13:19.130Z,99843.05
2018-12-23T01:13:50.284Z,99830.61
2018-12-23T01:14:23.495Z,99830.17
2018-12-23T01:14:55.194Z,99832.30
2018-12-23T01:15:26.322Z,99826.71
2018-12-23T01:15:57.426Z,99825.42
2018-12-23T01:16:28.535Z,99831.02
2018-12-23T01:17:00.413Z,99831.87
2018-12-23T01:17:31.564Z,99825.83
2018-12-23T01:18:03.275Z,99827.52
2018-12-23T01:18:34.392Z,99823.21
2018-12-23T01:19:05.577Z,99819.38
2018-12-23T01:19:37.688Z,99821.12
2018-12-23T01:20:08.921Z,99825.42
2018-12-23T01:20:40.041Z,99821.56
2018-12-23T01:21:11.150Z,99819.43
2018-12-23T01:21:42.263Z,99819.84
2018-12-23T01:22:14.598Z,99822.00
2018-12-23T01:22:46.313Z,99823.25
2018-12-23T01:23:17.424Z,99820.19
2018-12-23T01:23:48.686Z,99818.02
2018-12-23T01:24:19.880Z,99815.89
2018-12-23T01:24:51.987Z,99815.04
2018-12-23T01:25:24.007Z,99820.63
2018-12-23T01:25:56.282Z,99818.95
2018-12-23T01:26:27.400Z,99813.80
2018-12-23T01:26:59.424Z,99812.95
2018-12-23T01:27:30.636Z,99815.09
2018-12-23T01:28:01.997Z,99808.69
2018-12-23T01:28:33.124Z,99804.38
2018-12-23T01:29:04.776Z,99803.05
2018-12-23T01:29:35.946Z,99804.34
2018-12-23T01:30:07.048Z,99800.92
2018-12-23T01:30:38.154Z,99804.75
2018-12-23T01:31:10.201Z,99800.92
2018-12-23T01:31:41.393Z,99800.92
2018-12-23T01:32:12.511Z,99801.81
2018-12-23T01:32:44.921Z,99801.81
2018-12-23T01:33:16.384Z,99797.55
2018-12-23T01:33:47.574Z,99801.84
2018-12-23T01:34:18.696Z,99796.70
2018-12-23T01:34:49.859Z,99793.72
2018-12-23T01:35:21.034Z,99798.47
2018-12-23T01:35:52.240Z,99794.60
2018-12-23T01:36:23.350Z,99800.60
2018-12-23T01:36:54.755Z,99801.48
2018-12-23T01:37:25.917Z,99803.66
2018-12-23T01:37:57.040Z,99801.99
2018-12-23T01:38:29.020Z,99806.33
2018-12-23T01:39:00.616Z,99804.20
2018-12-23T01:39:31.776Z,99806.33
2018-12-23T01:40:02.884Z,99803.75
2018-12-23T01:40:34.133Z,99802.47
2018-12-23T01:41:05.245Z,99798.60
2018-12-23T01:41:37.625Z,99795.59
2018-12-23T01:42:09.321Z,99790.44
2018-12-23T01:42:40.432Z,99790.44
2018-12-23T01:43:11.589Z,99788.73
2018-12-23T01:43:42.689Z,99788.36
2018-12-23T01:44:13.931Z,99789.23
2018-12-23T01:44:45.039Z,99785.36
2018-12-23T01:45:16.767Z,99789.67
2018-12-23T01:45:48.811Z,99791.81
2018-12-23T01:46:19.940Z,99794.35
2018-12-23T01:46:51.091Z,99790.11
2018-12-23T01:47:22.197Z,99792.66
2018-12-23T01:47:53.384Z,99789.20
2018-12-23T01:48:24.628Z,99793.95
2018-12-23T01:48:55.947Z,99786.22
2018-12-23T01:49:27.098Z,99782.38
2018-12-23T01:49:58.344Z,99784.52
2018-12-23T01:50:29.441Z,99781.52
2018-12-23T01:51:00.596Z,99792.24
2018-12-23T01:51:31.728Z,99788.81
2018-12-23T01:52:02.847Z,99786.67
2018-12-23T01:52:33.955Z,99785.39
2018-12-23T01:53:05.048Z,99787.55
2018-12-23T01:53:36.215Z,99788.87
2018-12-23T01:54:07.337Z,99791.03
2018-12-23T01:54:38.492Z,99788.00
2018-12-23T01:55:09.598Z,99789.77
2018-12-23T01:55:40.808Z,99785.88
2018-12-23T01:56:11.911Z,99791.91
2018-12-23T01:56:43.768Z,99791.95
2018-12-23T01:57:15.444Z,99791.97
2018-12-23T01:57:46.551Z,99793.28
2018-12-23T01:58:17.670Z,99793.30
2018-12-23T01:58:48.756Z,99792.02
2018-12-23T01:59:19.876Z,99801.48
2018-12-23T01:59:51.020Z,99797.19
2018-12-23T02:00:23.030Z,99797.20
2018-12-23T02:00:54.120Z,99798.92
2018-12-23T02:01:25.228Z,99800.22
2018-12-23T02:01:56.426Z,99795.05
2018-12-23T02:02:27.577Z,99794.61
2018-12-23T02:02:58.672Z,99792.45
2018-12-23T02:03:29.760Z,99792.04
2018-12-23T02:04:00.857Z,99785.58
2018-12-23T02:04:32.103Z,99792.01
2018-12-23T02:05:03.212Z,99789.02
2018-12-23T02:05:34.951Z,99788.58
2018-12-23T02:06:06.199Z,99789.86
2018-12-23T02:06:38.489Z,99791.59
2018-12-23T02:07:09.590Z,99792.88
2018-12-23T02:07:40.730Z,99791.15
2018-12-23T02:08:12.869Z,99795.45
2018-12-23T02:08:44.002Z,99798.03
2018-12-23T02:09:15.096Z,99799.33
2018-12-23T02:09:46.200Z,99798.04
2018-12-23T02:10:18.358Z,99802.35
2018-12-23T02:10:49.461Z,99806.23
2018-12-23T02:11:20.562Z,99804.94
2018-12-23T02:11:51.829Z,99805.34
2018-12-23T02:12:23.012Z,99803.22
2018-12-23T02:12:54.140Z,99798.46
2018-12-23T02:13:25.296Z,99797.63
2018-12-23T02:13:56.404Z,99798.06
2018-12-23T02:14:28.421Z,99796.32
2018-12-23T02:14:59.648Z,99792.03
2018-12-23T02:15:31.552Z,99798.06
2018-12-23T02:16:03.684Z,99793.75
2018-12-23T02:16:34.777Z,99792.88
2018-12-23T02:17:06.646Z,99790.74
2018-12-23T02:17:37.754Z,99789.44
2018-12-23T02:18:08.880Z,99789.42
2018-12-23T02:18:39.988Z,99787.70
2018-12-23T02:19:11.191Z,99784.26
2018-12-23T02:19:42.535Z,99791.14
2018-12-23T02:20:13.643Z,99782.94
2018-12-23T02:20:44.822Z,99783.36
2018-12-23T02:21:16.086Z,99790.23
2018-12-23T02:21:47.243Z,99782.03
2018-12-23T02:22:19.197Z,99786.30
2018-12-23T02:22:51.288Z,99781.54
2018-12-23T02:23:22.391Z,99778.94
2018-12-23T02:23:54.395Z,99784.51
2018-12-23T02:24:25.535Z,99769.81
2018-12-23T02:24:56.652Z,99784.02
2018-12-23T02:25:27.763Z,99781.81
2018-12-23T02:25:59.757Z,99785.66
2018-12-23T02:26:30.964Z,99791.69
2018-12-23T02:27:02.063Z,99785.61
2018-12-23T02:27:33.161Z,99781.23
2018-12-23T02:28:05.267Z,99785.05
2018-12-23T02:28:37.354Z,99783.27
2018-12-23T02:29:09.538Z,99783.66
2018-12-23T02:29:40.710Z,99781.02
2018-12-23T02:30:11.842Z,99780.95
2018-12-23T02:30:42.935Z,99780.87
2018-12-23T02:31:14.589Z,99780.77
2018-12-23T02:31:45.701Z,99777.67
2018-12-23T02:32:17.014Z,99778.89
2018-12-23T02:32:49.278Z,99781.85
2018-12-23T02:33:21.203Z,99783.06
2018-12-23T02:33:53.076Z,99776.92
2018-12-23T02:34:24.178Z,99778.53
2018-12-23T02:34:55.319Z,99782.78
2018-12-23T02:35:26.430Z,99780.13
2018-12-23T02:35:57.581Z,99786.97
2018-12-23T02:36:29.317Z,99782.09
2018-12-23T02:37:00.421Z,99776.35
2018-12-23T02:37:31.525Z,99784.03
2018-12-23T02:38:02.644Z,99782.21
2018-12-23T02:38:34.273Z,99782.14
2018-12-23T02:39:05.360Z,99782.91
2018-12-23T02:39:37.111Z,99775.86
2018-12-23T02:40:08.233Z,99781.78
2018-12-23T02:40:39.328Z,99782.60
2018-12-23T02:41:10.468Z,99776.98
2018-12-23T02:41:41.603Z,99777.38
2018-12-23T02:42:12.955Z,99779.08
2018-12-23T02:42:44.080Z,99788.56
2018-12-23T02:43:15.191Z,99781.61
2018-12-23T02:43:46.459Z,99779.81
2018-12-23T02:44:19.636Z,99789.23
2018-12-23T02:44:50.734Z,99783.04
2018-12-23T02:45:21.830Z,99786.48
2018-12-23T02:45:52.920Z,99788.17
2018-12-23T02:46:24.016Z,99779.05
2018-12-23T02:46:55.121Z,99782.95
2018-12-23T02:47:26.264Z,99779.89
2018-12-23T02:47:57.374Z,99783.80
2018-12-23T02:48:28.473Z,99784.19
2018-12-23T02:48:59.618Z,99785.45
2018-12-23T02:49:30.721Z,99781.95
2018-12-23T02:50:01.819Z,99779.28
2018-12-23T02:50:32.916Z,99779.28
2018-12-23T02:51:04.163Z,99773.20
2018-12-23T02:51:35.328Z,99774.83
2018-12-23T02:52:06.426Z,99777.36
2018-12-23T02:52:37.568Z,99781.23
2018-12-23T02:53:08.696Z,99778.17
2018-12-23T02:53:39.801Z,99782.92
2018-12-23T02:54:10.891Z,99785.94
2018-12-23T02:54:42.035Z,99780.32
2018-12-23T02:55:13.140Z,99780.74
2018-12-23T02:55:44.233Z,99783.77
2018-12-23T02:56:15.331Z,99781.13
2018-12-23T02:56:46.445Z,99779.83
2018-12-23T02:57:17.570Z,99781.06
2018-12-23T02:57:48.671Z,99781.48
2018-12-23T02:58:19.777Z,99783.20
2018-12-23T02:58:50.877Z,99781.00
2018-12-23T02:59:21.978Z,99775.30
2018-12-23T02:59:53.113Z,99780.08
2018-12-23T03:00:24.220Z,99784.83
2018-12-23T03:00:55.325Z,99780.50
2018-12-23T03:01:26.429Z,99785.28
2018-12-23T03:01:57.530Z,99780.92
2018-12-23T03:02:28.632Z,99780.02
2018-12-23T03:02:59.730Z,99783.42
2018-12-23T03:03:30.827Z,99789.50
2018-12-23T03:04:01.924Z,99789.92
2018-12-23T03:04:33.029Z,99788.63
2018-12-23T03:05:04.164Z,99789.47
2018-12-23T03:05:35.259Z,99790.73
2018-12-23T03:06:06.545Z,99791.12
2018-12-23T03:06:37.732Z,99792.84
2018-12-23T03:07:08.834Z,99791.50
2018-12-23T03:07:39.980Z,99791.02
2018-12-23T03:08:11.090Z,99793.58
2018-12-23T03:08:42.205Z,99790.91
2018-12-23T03:09:13.297Z,99798.25
2018-12-23T03:09:44.397Z,99799.06
2018-12-23T03:10:15.512Z,99799.86
2018-12-23T03:10:46.605Z,99796.38
2018-12-23T03:11:17.711Z,99792.02
2018-12-23T03:11:48.848Z,99801.55
2018-12-23T03:12:19.952Z,99794.63
2018-12-23T03:12:51.060Z,99795.92
2018-12-23T03:13:22.161Z,99795.05
2018-12-23T03:13:53.264Z,99799.83
2018-12-23T03:14:24.372Z,99794.20
2018-12-23T03:14:55.671Z,99793.32
2018-12-23T03:15:26.922Z,99796.34
2018-12-23T03:15:58.728Z,99801.52
2018-12-23T03:16:29.841Z,99801.48
2018-12-23T03:17:00.987Z,99796.69
2018-12-23T03:17:32.095Z,99797.92
2018-12-23T03:18:03.231Z,99797.42
2018-12-23T03:18:34.405Z,99794.41
2018-12-23T03:19:05.495Z,99796.16
2018-12-23T03:19:36.597Z,99790.53
2018-12-23T03:20:07.698Z,99796.58
2018-12-23T03:20:38.813Z,99797.00
2018-12-23T03:21:09.901Z,99794.40
2018-12-23T03:21:41.045Z,99797.38
2018-12-23T03:22:12.143Z,99795.55
2018-12-23T03:22:43.239Z,99797.31
2018-12-23T03:23:14.333Z,99801.14
2018-12-23T03:23:45.434Z,99804.20
2018-12-23T03:24:16.535Z,99801.59
2018-12-23T03:24:47.637Z,99800.30
2018-12-23T03:25:18.744Z,99801.21
2018-12-23T03:25:49.888Z,99807.72
2018-12-23T03:26:20.996Z,99807.72
2018-12-23T03:26:52.233Z,99808.59
2018-12-23T03:27:23.343Z,99806.42
2018-12-23T03:27:54.440Z,99805.19
2018-12-23T03:28:25.529Z,99810.02
2018-12-23T03:28:56.627Z,99810.09
2018-12-23T03:29:27.815Z,99810.93
2018-12-23T03:29:58.924Z,99809.70
2018-12-23T03:30:30.036Z,99812.72
2018-12-23T03:31:01.353Z,99807.98
2018-12-23T03:31:32.525Z,99813.26
2018-12-23T03:32:03.796Z,99807.25
2018-12-23T03:32:35.007Z,99810.37
2018-12-23T03:33:06.109Z,99815.69
2018-12-23T03:33:37.213Z,99811.82
2018-12-23T03:34:08.312Z,99811.02
2018-12-23T03:34:39.405Z,99810.59
2018-12-23T03:35:10.508Z,99815.79
2018-12-23T03:35:41.600Z,99819.23
2018-12-23T03:36:15.202Z,99811.89
2018-12-23T03:36:45.808Z,99810.20
2018-12-23T03:37:16.934Z,99812.34
2018-12-23T03:37:48.032Z,99810.20
2018-12-23T03:38:19.141Z,99810.20
2018-12-23T03:38:50.227Z,99807.60
2018-12-23T03:39:21.321Z,99806.34
2018-12-23T03:39:52.419Z,99815.50
2018-12-23T03:40:23.510Z,99808.13
2018-12-23T03:40:54.612Z,99805.98
2018-12-23T03:41:25.714Z,99808.55
2018-12-23T03:41:56.873Z,99810.72
2018-12-23T03:42:28.004Z,99809.81
2018-12-23T03:42:59.101Z,99807.22
2018-12-23T03:43:30.215Z,99809.78
2018-12-23T03:44:01.312Z,99807.60
2018-12-23T03:44:32.409Z,99811.02
2018-12-23T03:45:03.510Z,99807.88
2018-12-23T03:45:34.611Z,99808.73
2018-12-23T03:46:05.708Z,99812.17
2018-12-23T03:46:36.805Z,99805.25
2018-12-23T03:47:07.951Z,99814.28
2018-12-23T03:47:39.052Z,99815.58
2018-12-23T03:48:10.166Z,99815.97
2018-12-23T03:48:41.265Z,99812.48
2018-12-23T03:49:12.372Z,99812.41
2018-12-23T03:49:43.467Z,99815.44
2018-12-23T03:50:14.567Z,99817.09
2018-12-23T03:50:45.673Z,99812.72
2018-12-23T03:51:16.767Z,99810.93
2018-12-23T03:51:47.860Z,99806.64
2018-12-23T03:52:18.986Z,99807.91
2018-12-23T03:52:50.100Z,99804.84
2018-12-23T03:53:21.460Z,99805.27
2018-12-23T03:53:52.553Z,99798.80
2018-12-23T03:54:23.642Z,99801.36
2018-12-23T03:54:54.741Z,99806.98
2018-12-23T03:55:25.851Z,99799.60
2018-12-23T03:55:56.960Z,99791.72
2018-12-23T03:56:28.063Z,99796.50
2018-12-23T03:56:59.160Z,99796.08
2018-12-23T03:57:30.264Z,99800.83
2018-12-23T03:58:01.375Z,99801.28
2018-12-23T03:58:32.513Z,99801.33
2018-12-23T03:59:04.694Z,99800.48
2018-12-23T03:59:35.804Z,99800.48
2018-12-23T04:00:07.191Z,99802.63
2018-12-23T04:00:38.291Z,99795.73
2018-12-23T04:01:11.086Z,99798.84
2018-12-23T04:01:42.208Z,99804.95
2018-12-23T04:02:13.317Z,99798.03
2018-12-23T04:02:44.411Z,99799.30
2018-12-23T04:03:15.512Z,99804.84
2018-12-23T04:03:46.681Z,99794.40
2018-12-23T04:04:18.639Z,99796.50
2018-12-23T04:04:50.995Z,99788.28
2018-12-23T04:05:22.094Z,99794.78
2018-12-23T04:05:53.195Z,99783.91
2018-12-23T04:06:24.971Z,99786.48
2018-12-23T04:06:56.339Z,99794.70
2018-12-23T04:07:27.481Z,99787.28
2018-12-23T04:07:58.690Z,99788.08
2018-12-23T04:08:29.918Z,99789.77
2018-12-23T04:09:01.043Z,99783.68
2018-12-23T04:09:32.248Z,99783.64
2018-12-23T04:10:03.353Z,99782.68
2018-12-23T04:10:34.634Z,99784.33
2018-12-23T04:11:05.740Z,99784.70
2018-12-23T04:11:36.835Z,99779.42
2018-12-23T04:12:07.941Z,99781.94
2018-12-23T04:12:39.079Z,99787.11
2018-12-23T04:13:10.183Z,99784.03
2018-12-23T04:13:41.272Z,99783.50
2018-12-23T04:14:12.384Z,99784.80
2018-12-23T04:14:43.488Z,99780.39
2018-12-23T04:15:14.632Z,99780.00
2018-12-23T04:15:45.792Z,99774.80
2018-12-23T04:16:16.891Z,99779.55
2018-12-23T04:16:48.120Z,99782.61
2018-12-23T04:17:19.291Z,99782.57
2018-12-23T04:17:50.438Z,99783.38
2018-12-23T04:18:21.535Z,99786.86
2018-12-23T04:18:52.652Z,99783.79
2018-12-23T04:19:23.744Z,99785.09
2018-12-23T04:19:54.847Z,99782.48
2018-12-23T04:20:25.944Z,99787.23
2018-12-23T04:20:57.040Z,99786.77
2018-12-23T04:21:28.154Z,99786.77
2018-12-23T04:21:59.265Z,99786.77
2018-12-23T04:22:30.377Z,99787.95
2018-12-23T04:23:01.507Z,99783.58
2018-12-23T04:23:32.610Z,99782.69
2018-12-23T04:24:03.709Z,99795.67
2018-12-23T04:24:34.800Z,99795.67
2018-12-23T04:25:05.915Z,99782.65
2018-12-23T04:25:37.028Z,99785.22
2018-12-23T04:26:08.212Z,99776.93
2018-12-23T04:26:39.313Z,99785.58
2018-12-23T04:27:10.415Z,99776.88
2018-12-23T04:27:41.526Z,99780.70
2018-12-23T04:28:12.714Z,99773.72
2018-12-23T04:28:43.821Z,99774.98
2018-12-23T04:29:15.221Z,99776.20
2018-12-23T04:29:46.343Z,99779.59
2018-12-23T04:30:17.445Z,99782.52
2018-12-23T04:30:48.577Z,99786.34
2018-12-23T04:31:19.693Z,99785.42
2018-12-23T04:31:50.785Z,99789.69
2018-12-23T04:32:21.949Z,99787.93
2018-12-23T04:32:53.278Z,99793.60
2018-12-23T04:33:24.417Z,99788.02
2018-12-23T04:33:55.527Z,99794.95
2018-12-23T04:34:26.631Z,99794.95
2018-12-23T04:34:57.737Z,99795.33
2018-12-23T04:35:30.991Z,99791.88
2018-12-23T04:36:02.089Z,99794.58
2018-12-23T04:36:34.188Z,99790.72
2018-12-23T04:37:05.663Z,99798.62
2018-12-23T04:37:36.787Z,99794.77
2018-12-23T04:38:07.901Z,99788.34
2018-12-23T04:38:39.044Z,99795.86
2018-12-23T04:39:10.223Z,99790.33
2018-12-23T04:39:41.318Z,99785.16
2018-12-23T04:40:12.412Z,99788.61
2018-12-23T04:40:43.518Z,99792.14
2018-12-23T04:41:14.834Z,99793.53
2018-12-23T04:41:45.971Z,99788.45
2018-12-23T04:42:17.074Z,99789.33
2018-12-23T04:42:48.231Z,99792.41
2018-12-23T04:43:19.329Z,99788.91
2018-12-23T04:43:51.721Z,99793.66
2018-12-23T04:44:22.876Z,99790.13
2018-12-23T04:44:54.773Z,99787.02
2018-12-23T04:45:25.917Z,99779.96
2018-12-23T04:45:57.014Z,99782.55
2018-12-23T04:46:28.110Z,99782.05
2018-12-23T04:46:59.340Z,99779.77
2018-12-23T04:47:30.525Z,99780.61
2018-12-23T04:48:01.656Z,99781.91
2018-12-23T04:48:32.761Z,99778.47
2018-12-23T04:49:03.938Z,99501.34
2018-12-23T04:49:35.081Z,99778.89
2018-12-23T04:50:06.179Z,99781.95
2018-12-23T04:50:37.306Z,99779.81
2018-12-23T04:51:08.976Z,99779.86
2018-12-23T04:51:40.152Z,99782.89
2018-12-23T04:52:11.264Z,99786.84
2018-12-23T04:52:42.401Z,99786.46
2018-12-23T04:53:13.504Z,99794.70
2018-12-23T04:53:45.645Z,99795.20
2018-12-23T04:54:16.754Z,99794.33
2018-12-23T04:54:47.934Z,99800.00
2018-12-23T04:55:19.072Z,99795.17
2018-12-23T04:55:51.203Z,99799.02
2018-12-23T04:56:22.314Z,99790.78
2018-12-23T04:56:53.417Z,99801.63
2018-12-23T04:57:24.510Z,99808.56
2018-12-23T04:57:55.626Z,99807.72
2018-12-23T04:58:27.371Z,99806.80
2018-12-23T04:58:58.476Z,99809.31
2018-12-23T04:59:29.643Z,99805.78
2018-12-23T05:00:00.780Z,99803.55
2018-12-23T05:00:31.881Z,99802.75
2018-12-23T05:01:40.534Z,99805.27
2018-12-23T05:02:11.640Z,99803.50
2018-12-23T05:02:42.749Z,99800.77
2018-12-23T05:03:13.871Z,99804.59
2018-12-23T05:03:45.002Z,99804.20
2018-12-23T05:04:16.131Z,99805.13
2018-12-23T05:04:47.803Z,99811.66
2018-12-23T05:05:18.922Z,99811.66
2018-12-23T05:05:50.069Z,99807.83
2018-12-23T05:06:21.246Z,99805.69
2018-12-23T05:06:52.485Z,99817.88
2018-12-23T05:07:23.595Z,99820.99
2018-12-23T05:07:54.701Z,99818.44
2018-12-23T05:08:25.855Z,99826.67
2018-12-23T05:08:57.013Z,99812.89
2018-12-23T05:09:28.141Z,99816.84
2018-12-23T05:09:59.265Z,99824.70
2018-12-23T05:10:30.377Z,99818.19
2018-12-23T05:11:01.485Z,99816.89
2018-12-23T05:11:32.592Z,99822.56
2018-12-23T05:12:03.696Z,99826.93
2018-12-23T05:12:34.800Z,99826.47
2018-12-23T05:13:05.944Z,99827.73
2018-12-23T05:13:37.197Z,99829.45
2018-12-23T05:14:08.449Z,99831.22
2018-12-23T05:14:39.590Z,99832.52
2018-12-23T05:15:10.866Z,99828.61
2018-12-23T05:15:41.971Z,99829.88
2018-12-23T05:16:13.119Z,99835.92
2018-12-23T05:16:44.326Z,99836.33
2018-12-23T05:17:15.429Z,99831.97
2018-12-23T05:17:46.588Z,99837.22
2018-12-23T05:18:17.692Z,99838.94
2018-12-23T05:18:48.790Z,99832.05
2018-12-23T05:19:19.895Z,99829.41
2018-12-23T05:19:51.006Z,99837.18
2018-12-23T05:20:22.143Z,99837.64
2018-12-23T05:20:53.450Z,99837.64
2018-12-23T05:21:24.557Z,99837.26
2018-12-23T05:21:55.660Z,99839.86
2018-12-23T05:22:26.757Z,99841.59
2018-12-23T05:22:57.854Z,99844.20
2018-12-23T05:23:28.957Z,99844.28
2018-12-23T05:24:00.111Z,99843.91
2018-12-23T05:24:31.208Z,99847.77
2018-12-23T05:25:02.297Z,99843.02
2018-12-23T05:25:33.423Z,99843.10
2018-12-23T05:26:04.511Z,99843.14
2018-12-23T05:26:36.813Z,99847.05
2018-12-23T05:27:07.920Z,99846.63
2018-12-23T05:27:39.003Z,99847.13
2018-12-23T05:28:10.096Z,99850.20
2018-12-23T05:28:41.189Z,99854.53
2018-12-23T05:29:12.286Z,99853.27
2018-12-23T05:29:43.431Z,99858.47
2018-12-23T05:30:14.541Z,99861.08
2018-12-23T05:30:45.637Z,99858.01
2018-12-23T05:31:16.732Z,99861.00
2018-12-23T05:31:47.837Z,99854.95
2018-12-23T05:32:19.008Z,99863.64
2018-12-23T05:32:50.108Z,99860.19
2018-12-23T05:33:21.223Z,99862.80
2018-12-23T05:33:52.325Z,99858.51
2018-12-23T05:34:24.142Z,99862.88
2018-12-23T05:34:55.284Z,99870.31
2018-12-23T05:35:26.401Z,99861.62
2018-12-23T05:35:57.488Z,99865.86
2018-12-23T05:36:28.607Z,99875.81
2018-12-23T05:36:59.696Z,99872.72
2018-12-23T05:37:30.874Z,99874.02
2018-12-23T05:38:01.978Z,99877.55
2018-12-23T05:38:33.083Z,99870.61
2018-12-23T05:39:04.184Z,99873.26
2018-12-23T05:39:35.276Z,99871.57
2018-12-23T05:40:06.404Z,99875.94
2018-12-23T05:40:37.505Z,99883.75
2018-12-23T05:41:08.639Z,99889.42
2018-12-23T05:41:39.821Z,99880.38
2018-12-23T05:42:10.929Z,99884.36
2018-12-23T05:42:42.100Z,99882.25
2018-12-23T05:43:13.238Z,99883.17
2018-12-23T05:43:44.336Z,99882.33
2018-12-23T05:44:15.448Z,99886.27
2018-12-23T05:44:46.545Z,99862.72
2018-12-23T05:45:17.668Z,99887.64
2018-12-23T05:45:48.914Z,99884.63
2018-12-23T05:46:20.064Z,99882.06
2018-12-23T05:46:51.192Z,99885.54
2018-12-23T05:47:22.284Z,99886.45
2018-12-23T05:47:53.382Z,99883.47
2018-12-23T05:48:24.540Z,99879.14
2018-12-23T05:48:55.657Z,99879.56
2018-12-23T05:49:26.756Z,99878.72
2018-12-23T05:49:57.897Z,99881.74
2018-12-23T05:50:28.996Z,99877.88
2018-12-23T05:51:00.088Z,99876.54
2018-12-23T05:51:31.718Z,99881.78
2018-12-23T05:52:02.829Z,99887.86
2018-12-23T05:52:33.931Z,99891.34
2018-12-23T05:53:05.076Z,99885.69
2018-12-23T05:53:36.221Z,99887.87
2018-12-23T05:54:07.328Z,99882.27
2018-12-23T05:54:38.473Z,99882.70
2018-12-23T05:55:09.611Z,99882.27
2018-12-23T05:55:40.754Z,99888.78
2018-12-23T05:56:11.866Z,99886.67
2018-12-23T05:56:43.035Z,99884.00
2018-12-23T05:57:14.141Z,99893.95
2018-12-23T05:57:45.246Z,99887.05
2018-12-23T05:58:16.347Z,99893.14
2018-12-23T05:58:47.458Z,99891.45
2018-12-23T05:59:18.565Z,99888.04
2018-12-23T05:59:49.721Z,99884.59
2018-12-23T06:00:20.835Z,99883.39
2018-12-23T06:00:51.936Z,99887.72
2018-12-23T06:01:23.064Z,99885.58
2018-12-23T06:01:54.176Z,99884.66
2018-12-23T06:02:25.273Z,99880.73
2018-12-23T06:02:56.397Z,99883.72
2018-12-23T06:03:27.552Z,99884.59
2018-12-23T06:03:58.737Z,99880.69
2018-12-23T06:04:29.842Z,99879.53
2018-12-23T06:05:01.008Z,99880.94
2018-12-23T06:05:32.152Z,99883.67
2018-12-23T06:06:03.265Z,99873.82
2018-12-23T06:06:34.380Z,99885.13
2018-12-23T06:07:05.511Z,99879.58
2018-12-23T06:07:36.653Z,99882.23
2018-12-23T06:08:07.749Z,99878.44